sensor_id;sensor_type;location;lat;lon;timestamp;P1;P2;P0
44933;PMS3003;30667;43.614;1.442;2022-12-20T00:00:57;6.00;6.00;2.00
44933;PMS3003;30667;43.614;1.442;2022-12-20T00:03:22;7.50;6.00;1.00
44933;PMS3003;30667;43.614;1.442;2022-12-20T00:05:48;5.50;5.50;2.00
44933;PMS3003;30667;43.614;1.442;2022-12-20T00:08:13;6.75;6.50;3.00
44933;PMS3003;30667;43.614;1.442;2022-12-20T00:10:40;4.00;4.00;2.00
44933;PMS3003;30667;43.614;1.442;2022-12-20T00:13:07;8.00;7.00;3.40
44933;PMS3003;30667;43.614;1.442;2022-12-20T00:15:33;6.40;4.20;2.00
44933;PMS3003;30667;43.614;1.442;2022-12-20T00:17:59;6.00;4.50;1.75
44933;PMS3003;30667;43.614;1.442;2022-12-20T00:20:25;6.80;6.00;2.00
44933;PMS3003;30667;43.614;1.442;2022-12-20T00:22:51;7.00;6.80;2.60
44933;PMS3003;30667;43.614;1.442;2022-12-20T00:25:17;8.50;7.50;2.50
44933;PMS3003;30667;43.614;1.442;2022-12-20T00:27:44;6.20;6.20;2.00
44933;PMS3003;30667;43.614;1.442;2022-12-20T00:30:11;6.40;6.40;2.00
44933;PMS3003;30667;43.614;1.442;2022-12-20T00:32:36;6.60;6.00;2.00
44933;PMS3003;30667;43.614;1.442;2022-12-20T00:35:02;7.25;6.00;1.75
44933;PMS3003;30667;43.614;1.442;2022-12-20T00:37:27;7.75;6.00;1.00
44933;PMS3003;30667;43.614;1.442;2022-12-20T00:39:53;6.25;6.25;1.75
44933;PMS3003;30667;43.614;1.442;2022-12-20T00:42:18;5.00;4.00;2.00
44933;PMS3003;30667;43.614;1.442;2022-12-20T00:44:44;6.75;6.25;3.00
44933;PMS3003;30667;43.614;1.442;2022-12-20T00:47:09;6.00;6.00;2.00
44933;PMS3003;30667;43.614;1.442;2022-12-20T00:49:34;7.00;7.00;2.00
44933;PMS3003;30667;43.614;1.442;2022-12-20T00:52:00;7.00;6.75;2.00
44933;PMS3003;30667;43.614;1.442;2022-12-20T00:54:25;6.50;6.00;2.75
44933;PMS3003;30667;43.614;1.442;2022-12-20T00:56:50;7.00;7.00;3.00
44933;PMS3003;30667;43.614;1.442;2022-12-20T00:59:16;6.00;6.00;2.25
44933;PMS3003;30667;43.614;1.442;2022-12-20T01:01:41;6.25;6.00;2.00
44933;PMS3003;30667;43.614;1.442;2022-12-20T01:04:07;6.25;4.00;2.00
44933;PMS3003;30667;43.614;1.442;2022-12-20T01:06:32;6.00;6.00;2.00
44933;PMS3003;30667;43.614;1.442;2022-12-20T01:08:58;5.20;5.20;2.00
44933;PMS3003;30667;43.614;1.442;2022-12-20T01:11:26;7.60;4.40;1.00
44933;PMS3003;30667;43.614;1.442;2022-12-20T01:13:54;6.40;6.00;2.00
44933;PMS3003;30667;43.614;1.442;2022-12-20T01:16:22;4.00;4.00;2.00
44933;PMS3003;30667;43.614;1.442;2022-12-20T01:18:51;7.00;6.40;2.00
44933;PMS3003;30667;43.614;1.442;2022-12-20T01:21:18;4.40;3.20;1.00
44933;PMS3003;30667;43.614;1.442;2022-12-20T01:23:45;6.20;4.00;2.00
44933;PMS3003;30667;43.614;1.442;2022-12-20T01:26:11;4.50;4.50;2.00
44933;PMS3003;30667;43.614;1.442;2022-12-20T01:28:39;6.80;6.00;2.00
44933;PMS3003;30667;43.614;1.442;2022-12-20T01:31:07;7.40;7.00;2.40
44933;PMS3003;30667;43.614;1.442;2022-12-20T01:33:34;5.40;5.20;2.00
44933;PMS3003;30667;43.614;1.442;2022-12-20T01:36:01;8.75;7.75;2.25
44933;PMS3003;30667;43.614;1.442;2022-12-20T01:38:28;4.80;4.80;2.00
44933;PMS3003;30667;43.614;1.442;2022-12-20T01:40:54;5.50;5.50;1.00
44933;PMS3003;30667;43.614;1.442;2022-12-20T01:43:22;6.40;6.40;2.00
44933;PMS3003;30667;43.614;1.442;2022-12-20T01:45:49;5.80;4.20;2.00
44933;PMS3003;30667;43.614;1.442;2022-12-20T01:48:15;6.75;5.00;1.75
44933;PMS3003;30667;43.614;1.442;2022-12-20T01:50:45;5.80;4.00;1.60
44933;PMS3003;30667;43.614;1.442;2022-12-20T01:53:12;6.00;5.60;2.00
44933;PMS3003;30667;43.614;1.442;2022-12-20T01:55:40;8.80;4.60;2.00
44933;PMS3003;30667;43.614;1.442;2022-12-20T01:58:08;4.80;4.00;1.60
44933;PMS3003;30667;43.614;1.442;2022-12-20T02:00:36;7.80;6.00;2.00
44933;PMS3003;30667;43.614;1.442;2022-12-20T02:03:06;3.80;3.60;1.60
44933;PMS3003;30667;43.614;1.442;2022-12-20T02:05:34;7.20;6.00;2.20
44933;PMS3003;30667;43.614;1.442;2022-12-20T02:08:02;7.40;6.20;2.00
44933;PMS3003;30667;43.614;1.442;2022-12-20T02:10:33;4.00;4.00;1.60
44933;PMS3003;30667;43.614;1.442;2022-12-20T02:16:31;4.60;4.00;1.00
44933;PMS3003;30667;43.614;1.442;2022-12-20T02:19:14;6.00;4.20;1.80
44933;PMS3003;30667;43.614;1.442;2022-12-20T02:22:15;8.40;5.20;1.80
44933;PMS3003;30667;43.614;1.442;2022-12-20T02:27:50;5.00;5.00;2.00
44933;PMS3003;30667;43.614;1.442;2022-12-20T02:30:22;3.40;3.00;1.00
44933;PMS3003;30667;43.614;1.442;2022-12-20T02:33:02;6.40;6.20;2.00
44933;PMS3003;30667;43.614;1.442;2022-12-20T02:35:32;8.20;6.60;2.40
44933;PMS3003;30667;43.614;1.442;2022-12-20T02:38:02;8.80;6.40;2.00
44933;PMS3003;30667;43.614;1.442;2022-12-20T02:40:36;7.20;6.00;2.00
44933;PMS3003;30667;43.614;1.442;2022-12-20T02:43:06;6.00;5.60;1.60
44933;PMS3003;30667;43.614;1.442;2022-12-20T02:45:54;4.20;3.00;1.00
44933;PMS3003;30667;43.614;1.442;2022-12-20T02:48:23;5.00;3.60;1.00
44933;PMS3003;30667;43.614;1.442;2022-12-20T02:50:53;6.80;6.00;2.20
44933;PMS3003;30667;43.614;1.442;2022-12-20T02:53:21;4.60;4.00;1.00
44933;PMS3003;30667;43.614;1.442;2022-12-20T02:55:51;5.60;4.00;1.00
44933;PMS3003;30667;43.614;1.442;2022-12-20T02:58:28;6.80;6.00;2.00
44933;PMS3003;30667;43.614;1.442;2022-12-20T03:00:56;6.20;3.60;2.00
44933;PMS3003;30667;43.614;1.442;2022-12-20T03:03:28;7.40;6.00;2.00
44933;PMS3003;30667;43.614;1.442;2022-12-20T03:05:56;10.20;7.00;2.00
44933;PMS3003;30667;43.614;1.442;2022-12-20T03:08:22;5.50;4.75;2.00
44933;PMS3003;30667;43.614;1.442;2022-12-20T03:10:48;6.60;5.80;2.00
44933;PMS3003;30667;43.614;1.442;2022-12-20T03:13:15;4.20;4.20;1.00
44933;PMS3003;30667;43.614;1.442;2022-12-20T03:15:41;4.00;4.00;2.00
44933;PMS3003;30667;43.614;1.442;2022-12-20T03:18:06;7.00;7.00;2.00
44933;PMS3003;30667;43.614;1.442;2022-12-20T03:20:32;4.00;3.50;1.50
44933;PMS3003;30667;43.614;1.442;2022-12-20T03:22:57;7.50;4.75;1.50
44933;PMS3003;30667;43.614;1.442;2022-12-20T03:25:23;6.75;6.00;2.50
44933;PMS3003;30667;43.614;1.442;2022-12-20T03:27:48;5.75;4.25;2.00
44933;PMS3003;30667;43.614;1.442;2022-12-20T03:30:14;3.50;3.50;1.50
44933;PMS3003;30667;43.614;1.442;2022-12-20T03:32:39;4.00;3.75;1.00
44933;PMS3003;30667;43.614;1.442;2022-12-20T03:35:05;6.50;6.00;2.00
44933;PMS3003;30667;43.614;1.442;2022-12-20T03:37:30;4.60;3.20;1.00
44933;PMS3003;30667;43.614;1.442;2022-12-20T03:39:56;6.80;5.60;2.00
44933;PMS3003;30667;43.614;1.442;2022-12-20T03:42:22;4.25;4.25;1.50
44933;PMS3003;30667;43.614;1.442;2022-12-20T03:44:47;3.75;3.00;1.00
44933;PMS3003;30667;43.614;1.442;2022-12-20T03:47:12;5.25;4.25;1.50
44933;PMS3003;30667;43.614;1.442;2022-12-20T03:49:38;6.00;4.00;1.00
44933;PMS3003;30667;43.614;1.442;2022-12-20T03:52:04;4.00;4.00;2.00
44933;PMS3003;30667;43.614;1.442;2022-12-20T03:54:29;6.00;5.50;2.00
44933;PMS3003;30667;43.614;1.442;2022-12-20T03:56:55;5.20;4.00;1.00
44933;PMS3003;30667;43.614;1.442;2022-12-20T03:59:21;7.50;6.75;2.50
44933;PMS3003;30667;43.614;1.442;2022-12-20T04:01:46;6.00;3.75;1.50
44933;PMS3003;30667;43.614;1.442;2022-12-20T04:04:12;4.00;4.00;2.00
44933;PMS3003;30667;43.614;1.442;2022-12-20T04:06:38;6.00;5.40;2.00
44933;PMS3003;30667;43.614;1.442;2022-12-20T04:09:04;7.00;5.75;1.75
44933;PMS3003;30667;43.614;1.442;2022-12-20T04:11:30;6.40;4.00;1.00
44933;PMS3003;30667;43.614;1.442;2022-12-20T04:13:55;2.75;2.75;0.00
44933;PMS3003;30667;43.614;1.442;2022-12-20T04:16:22;4.00;4.00;2.00
44933;PMS3003;30667;43.614;1.442;2022-12-20T04:18:49;3.40;2.80;1.00
44933;PMS3003;30667;43.614;1.442;2022-12-20T04:21:14;6.00;6.00;2.25
44933;PMS3003;30667;43.614;1.442;2022-12-20T04:23:41;5.80;4.40;2.00
44933;PMS3003;30667;43.614;1.442;2022-12-20T04:26:07;4.00;4.00;1.60
44933;PMS3003;30667;43.614;1.442;2022-12-20T04:28:34;2.20;2.00;0.60
44933;PMS3003;30667;43.614;1.442;2022-12-20T04:31:01;3.60;3.40;1.60
44933;PMS3003;30667;43.614;1.442;2022-12-20T04:33:27;4.40;4.00;1.00
44933;PMS3003;30667;43.614;1.442;2022-12-20T04:35:53;3.20;3.00;0.80
44933;PMS3003;30667;43.614;1.442;2022-12-20T04:38:20;5.20;4.00;1.60
44933;PMS3003;30667;43.614;1.442;2022-12-20T04:40:49;3.00;3.00;1.00
44933;PMS3003;30667;43.614;1.442;2022-12-20T04:43:16;3.40;3.20;1.00
44933;PMS3003;30667;43.614;1.442;2022-12-20T04:45:42;5.60;3.00;1.00
44933;PMS3003;30667;43.614;1.442;2022-12-20T04:48:08;5.00;3.00;1.00
44933;PMS3003;30667;43.614;1.442;2022-12-20T04:50:33;5.00;4.00;1.00
44933;PMS3003;30667;43.614;1.442;2022-12-20T04:52:59;3.00;2.75;1.00
44933;PMS3003;30667;43.614;1.442;2022-12-20T04:55:43;5.20;3.60;1.00
44933;PMS3003;30667;43.614;1.442;2022-12-20T04:58:08;4.00;3.00;1.00
44933;PMS3003;30667;43.614;1.442;2022-12-20T05:00:34;3.75;2.75;1.75
44933;PMS3003;30667;43.614;1.442;2022-12-20T05:02:59;6.00;3.75;1.00
44933;PMS3003;30667;43.614;1.442;2022-12-20T05:05:25;4.25;4.25;1.00
44933;PMS3003;30667;43.614;1.442;2022-12-20T05:07:51;4.00;4.00;2.00
44933;PMS3003;30667;43.614;1.442;2022-12-20T05:10:17;3.80;3.60;1.60
44933;PMS3003;30667;43.614;1.442;2022-12-20T05:12:43;6.00;3.80;1.00
44933;PMS3003;30667;43.614;1.442;2022-12-20T05:15:09;6.00;5.00;1.75
44933;PMS3003;30667;43.614;1.442;2022-12-20T05:17:35;6.20;5.20;1.00
44933;PMS3003;30667;43.614;1.442;2022-12-20T05:20:00;4.50;4.50;1.00
44933;PMS3003;30667;43.614;1.442;2022-12-20T05:22:25;7.00;6.00;2.00
44933;PMS3003;30667;43.614;1.442;2022-12-20T05:25:10;5.20;4.80;1.00
44933;PMS3003;30667;43.614;1.442;2022-12-20T05:27:54;6.00;5.60;2.00
44933;PMS3003;30667;43.614;1.442;2022-12-20T05:30:20;5.50;3.75;1.25
44933;PMS3003;30667;43.614;1.442;2022-12-20T05:32:45;4.50;3.00;1.25
44933;PMS3003;30667;43.614;1.442;2022-12-20T05:35:11;4.00;4.00;1.25
44933;PMS3003;30667;43.614;1.442;2022-12-20T05:37:37;4.00;3.00;1.00
44933;PMS3003;30667;43.614;1.442;2022-12-20T05:40:02;4.00;4.00;1.50
44933;PMS3003;30667;43.614;1.442;2022-12-20T05:42:28;4.40;3.00;1.00
44933;PMS3003;30667;43.614;1.442;2022-12-20T05:44:54;7.25;5.50;1.00
44933;PMS3003;30667;43.614;1.442;2022-12-20T05:47:19;6.25;4.00;1.00
44933;PMS3003;30667;43.614;1.442;2022-12-20T05:49:45;6.00;6.00;1.75
44933;PMS3003;30667;43.614;1.442;2022-12-20T05:52:10;6.75;5.25;2.25
44933;PMS3003;30667;43.614;1.442;2022-12-20T05:54:36;5.00;4.00;2.00
44933;PMS3003;30667;43.614;1.442;2022-12-20T05:57:01;7.00;4.00;2.00
44933;PMS3003;30667;43.614;1.442;2022-12-20T05:59:27;4.00;3.50;1.00
44933;PMS3003;30667;43.614;1.442;2022-12-20T06:01:52;2.00;2.00;1.00
44933;PMS3003;30667;43.614;1.442;2022-12-20T06:04:18;4.00;3.00;1.00
44933;PMS3003;30667;43.614;1.442;2022-12-20T06:06:44;3.40;3.00;1.00
44933;PMS3003;30667;43.614;1.442;2022-12-20T06:09:10;4.50;3.50;1.00
44933;PMS3003;30667;43.614;1.442;2022-12-20T06:11:36;3.50;3.50;1.00
44933;PMS3003;30667;43.614;1.442;2022-12-20T06:14:01;6.00;4.00;1.00
44933;PMS3003;30667;43.614;1.442;2022-12-20T06:16:27;7.25;4.75;1.50
44933;PMS3003;30667;43.614;1.442;2022-12-20T06:18:52;7.00;6.75;2.00
44933;PMS3003;30667;43.614;1.442;2022-12-20T06:21:18;6.50;4.00;1.00
44933;PMS3003;30667;43.614;1.442;2022-12-20T06:23:43;4.75;3.75;1.00
44933;PMS3003;30667;43.614;1.442;2022-12-20T06:26:08;6.00;6.00;2.00
44933;PMS3003;30667;43.614;1.442;2022-12-20T06:28:34;7.25;6.25;2.00
44933;PMS3003;30667;43.614;1.442;2022-12-20T06:31:06;7.80;7.00;3.00
44933;PMS3003;30667;43.614;1.442;2022-12-20T06:33:34;8.00;4.00;1.80
44933;PMS3003;30667;43.614;1.442;2022-12-20T06:35:59;3.00;3.00;1.00
44933;PMS3003;30667;43.614;1.442;2022-12-20T06:38:25;4.50;3.50;1.00
44933;PMS3003;30667;43.614;1.442;2022-12-20T06:40:50;6.00;4.75;1.00
44933;PMS3003;30667;43.614;1.442;2022-12-20T06:43:16;6.00;5.25;1.75
44933;PMS3003;30667;43.614;1.442;2022-12-20T06:45:41;5.75;4.25;1.00
44933;PMS3003;30667;43.614;1.442;2022-12-20T06:48:07;3.00;2.50;1.00
44933;PMS3003;30667;43.614;1.442;2022-12-20T06:50:32;3.50;3.50;1.25
44933;PMS3003;30667;43.614;1.442;2022-12-20T06:52:58;6.00;4.00;1.00
44933;PMS3003;30667;43.614;1.442;2022-12-20T06:55:24;3.40;3.00;1.00
44933;PMS3003;30667;43.614;1.442;2022-12-20T06:57:49;3.00;3.00;1.00
44933;PMS3003;30667;43.614;1.442;2022-12-20T07:00:15;5.25;3.00;1.00
44933;PMS3003;30667;43.614;1.442;2022-12-20T07:02:41;4.40;3.00;1.00
44933;PMS3003;30667;43.614;1.442;2022-12-20T07:05:06;4.25;4.25;2.00
44933;PMS3003;30667;43.614;1.442;2022-12-20T07:07:32;4.40;4.00;2.00
44933;PMS3003;30667;43.614;1.442;2022-12-20T07:09:57;4.25;4.25;2.00
44933;PMS3003;30667;43.614;1.442;2022-12-20T07:12:23;3.00;3.00;1.00
44933;PMS3003;30667;43.614;1.442;2022-12-20T07:14:49;5.20;4.40;2.00
44933;PMS3003;30667;43.614;1.442;2022-12-20T07:17:14;7.00;4.00;2.00
44933;PMS3003;30667;43.614;1.442;2022-12-20T07:19:40;3.00;3.00;0.75
44933;PMS3003;30667;43.614;1.442;2022-12-20T07:22:06;3.20;2.80;0.20
44933;PMS3003;30667;43.614;1.442;2022-12-20T07:24:32;3.00;3.00;1.00
44933;PMS3003;30667;43.614;1.442;2022-12-20T07:26:57;3.20;3.20;1.00
44933;PMS3003;30667;43.614;1.442;2022-12-20T07:29:23;5.00;3.00;1.00
44933;PMS3003;30667;43.614;1.442;2022-12-20T07:31:49;3.80;3.00;1.00
44933;PMS3003;30667;43.614;1.442;2022-12-20T07:34:15;4.00;4.00;2.00
44933;PMS3003;30667;43.614;1.442;2022-12-20T07:36:40;6.25;4.75;2.00
44933;PMS3003;30667;43.614;1.442;2022-12-20T07:39:06;4.60;4.00;1.00
44933;PMS3003;30667;43.614;1.442;2022-12-20T07:41:33;3.80;3.80;1.00
44933;PMS3003;30667;43.614;1.442;2022-12-20T07:43:59;3.00;3.00;1.00
44933;PMS3003;30667;43.614;1.442;2022-12-20T07:46:24;3.50;3.50;1.00
44933;PMS3003;30667;43.614;1.442;2022-12-20T07:48:50;3.40;3.00;1.00
44933;PMS3003;30667;43.614;1.442;2022-12-20T07:51:21;7.75;4.00;1.50
44933;PMS3003;30667;43.614;1.442;2022-12-20T07:53:52;6.80;4.60;2.00
44933;PMS3003;30667;43.614;1.442;2022-12-20T07:56:23;6.80;4.60;2.00
44933;PMS3003;30667;43.614;1.442;2022-12-20T07:58:50;4.20;3.80;1.00
44933;PMS3003;30667;43.614;1.442;2022-12-20T08:01:20;6.80;5.40;2.00
44933;PMS3003;30667;43.614;1.442;2022-12-20T08:03:46;4.50;4.25;2.00
44933;PMS3003;30667;43.614;1.442;2022-12-20T08:06:16;9.80;5.20;1.80
44933;PMS3003;30667;43.614;1.442;2022-12-20T08:08:43;6.80;6.00;2.00
44933;PMS3003;30667;43.614;1.442;2022-12-20T08:11:13;4.20;4.00;1.20
44933;PMS3003;30667;43.614;1.442;2022-12-20T08:13:40;8.20;6.60;3.00
44933;PMS3003;30667;43.614;1.442;2022-12-20T08:16:06;6.75;4.00;1.75
44933;PMS3003;30667;43.614;1.442;2022-12-20T08:18:32;6.60;5.20;2.00
44933;PMS3003;30667;43.614;1.442;2022-12-20T08:20:57;4.00;4.00;1.00
44933;PMS3003;30667;43.614;1.442;2022-12-20T08:23:22;4.00;4.00;1.00
44933;PMS3003;30667;43.614;1.442;2022-12-20T08:25:48;8.00;7.00;2.25
44933;PMS3003;30667;43.614;1.442;2022-12-20T08:28:14;4.00;4.00;2.00
44933;PMS3003;30667;43.614;1.442;2022-12-20T08:30:39;4.50;4.50;2.00
44933;PMS3003;30667;43.614;1.442;2022-12-20T08:33:05;5.50;3.50;1.25
44933;PMS3003;30667;43.614;1.442;2022-12-20T08:35:30;7.25;5.00;2.00
44933;PMS3003;30667;43.614;1.442;2022-12-20T08:37:56;4.50;3.75;1.00
44933;PMS3003;30667;43.614;1.442;2022-12-20T08:40:21;7.00;5.00;2.00
44933;PMS3003;30667;43.614;1.442;2022-12-20T08:42:47;7.25;5.00;2.00
44933;PMS3003;30667;43.614;1.442;2022-12-20T08:45:12;7.25;5.50;2.00
44933;PMS3003;30667;43.614;1.442;2022-12-20T08:47:38;7.00;4.00;1.80
44933;PMS3003;30667;43.614;1.442;2022-12-20T08:50:03;3.00;3.00;1.00
44933;PMS3003;30667;43.614;1.442;2022-12-20T08:52:30;7.20;5.00;1.60
44933;PMS3003;30667;43.614;1.442;2022-12-20T08:54:55;4.00;3.00;1.00
44933;PMS3003;30667;43.614;1.442;2022-12-20T08:57:21;5.00;5.00;2.00
44933;PMS3003;30667;43.614;1.442;2022-12-20T08:59:46;8.00;7.00;2.00
44933;PMS3003;30667;43.614;1.442;2022-12-20T09:02:12;6.50;5.00;2.00
44933;PMS3003;30667;43.614;1.442;2022-12-20T09:04:37;9.25;8.00;3.00
44933;PMS3003;30667;43.614;1.442;2022-12-20T09:07:02;7.50;7.25;2.00
44933;PMS3003;30667;43.614;1.442;2022-12-20T09:09:28;7.00;5.00;1.50
44933;PMS3003;30667;43.614;1.442;2022-12-20T09:11:53;7.00;5.00;2.00
44933;PMS3003;30667;43.614;1.442;2022-12-20T09:14:19;8.20;6.80;3.00
44933;PMS3003;30667;43.614;1.442;2022-12-20T09:16:45;5.00;4.60;1.80
44933;PMS3003;30667;43.614;1.442;2022-12-20T09:19:11;4.25;4.25;2.00
44933;PMS3003;30667;43.614;1.442;2022-12-20T09:21:38;7.40;6.20;2.00
44933;PMS3003;30667;43.614;1.442;2022-12-20T09:24:03;7.50;5.50;2.00
44933;PMS3003;30667;43.614;1.442;2022-12-20T09:26:30;6.20;5.00;2.20
44933;PMS3003;30667;43.614;1.442;2022-12-20T09:28:56;4.80;4.00;1.40
44933;PMS3003;30667;43.614;1.442;2022-12-20T09:31:24;6.60;4.60;2.00
44933;PMS3003;30667;43.614;1.442;2022-12-20T09:33:54;6.80;4.20;1.80
44933;PMS3003;30667;43.614;1.442;2022-12-20T09:36:22;8.00;7.80;3.00
44933;PMS3003;30667;43.614;1.442;2022-12-20T09:38:48;11.00;7.20;2.80
44933;PMS3003;30667;43.614;1.442;2022-12-20T09:43:59;5.00;5.00;1.40
44933;PMS3003;30667;43.614;1.442;2022-12-20T09:46:28;7.40;7.00;2.60
44933;PMS3003;30667;43.614;1.442;2022-12-20T09:48:53;4.25;3.75;1.75
44933;PMS3003;30667;43.614;1.442;2022-12-20T09:56:32;7.20;5.60;2.60
44933;PMS3003;30667;43.614;1.442;2022-12-20T09:59:19;8.40;7.00;3.00
44933;PMS3003;30667;43.614;1.442;2022-12-20T10:01:46;9.00;5.20;2.20
44933;PMS3003;30667;43.614;1.442;2022-12-20T10:04:18;8.20;5.00;2.00
44933;PMS3003;30667;43.614;1.442;2022-12-20T10:06:48;10.00;7.20;2.00
44933;PMS3003;30667;43.614;1.442;2022-12-20T10:12:12;5.00;4.40;2.00
44933;PMS3003;30667;43.614;1.442;2022-12-20T10:20:40;5.60;4.40;1.40
44933;PMS3003;30667;43.614;1.442;2022-12-20T10:23:19;7.00;5.00;2.00
44933;PMS3003;30667;43.614;1.442;2022-12-20T10:25:56;7.60;7.00;2.00
44933;PMS3003;30667;43.614;1.442;2022-12-20T10:28:26;6.80;6.20;2.00
44933;PMS3003;30667;43.614;1.442;2022-12-20T10:30:57;10.00;8.20;4.00
44933;PMS3003;30667;43.614;1.442;2022-12-20T10:33:25;4.00;4.00;2.00
44933;PMS3003;30667;43.614;1.442;2022-12-20T10:35:52;10.40;7.00;3.00
44933;PMS3003;30667;43.614;1.442;2022-12-20T10:38:19;4.80;4.80;2.00
44933;PMS3003;30667;43.614;1.442;2022-12-20T10:43:22;6.60;4.60;2.00
44933;PMS3003;30667;43.614;1.442;2022-12-20T10:45:56;5.80;5.00;2.00
44933;PMS3003;30667;43.614;1.442;2022-12-20T10:48:25;9.20;5.60;2.00
44933;PMS3003;30667;43.614;1.442;2022-12-20T10:51:14;7.00;3.80;2.00
44933;PMS3003;30667;43.614;1.442;2022-12-20T10:56:17;3.20;3.20;1.80
44933;PMS3003;30667;43.614;1.442;2022-12-20T11:01:42;8.00;7.00;3.00
44933;PMS3003;30667;43.614;1.442;2022-12-20T11:06:51;5.60;4.20;1.00
44933;PMS3003;30667;43.614;1.442;2022-12-20T11:12:08;7.20;6.80;2.40
44933;PMS3003;30667;43.614;1.442;2022-12-20T11:14:36;4.40;4.00;2.00
44933;PMS3003;30667;43.614;1.442;2022-12-20T11:17:13;8.00;6.60;2.20
44933;PMS3003;30667;43.614;1.442;2022-12-20T11:30:39;7.80;5.00;2.00
44933;PMS3003;30667;43.614;1.442;2022-12-20T11:33:33;7.80;6.80;2.00
44933;PMS3003;30667;43.614;1.442;2022-12-20T11:36:31;7.60;6.20;2.80
44933;PMS3003;30667;43.614;1.442;2022-12-20T11:47:14;8.40;8.00;3.00
44933;PMS3003;30667;43.614;1.442;2022-12-20T11:52:47;6.40;5.00;2.00
44933;PMS3003;30667;43.614;1.442;2022-12-20T11:55:23;26.60;24.20;15.40
44933;PMS3003;30667;43.614;1.442;2022-12-20T11:58:10;86.00;66.00;41.40
44933;PMS3003;30667;43.614;1.442;2022-12-20T12:00:42;44.80;36.00;23.20
44933;PMS3003;30667;43.614;1.442;2022-12-20T12:03:20;37.00;31.40;21.00
44933;PMS3003;30667;43.614;1.442;2022-12-20T12:06:34;44.50;35.50;24.00
44933;PMS3003;30667;43.614;1.442;2022-12-20T12:08:54;11.80;8.20;3.80
44933;PMS3003;30667;43.614;1.442;2022-12-20T12:11:55;20.20;14.60;9.00
44933;PMS3003;30667;43.614;1.442;2022-12-20T12:17:23;20.20;17.20;11.20
44933;PMS3003;30667;43.614;1.442;2022-12-20T12:19:50;26.20;21.20;13.40
44933;PMS3003;30667;43.614;1.442;2022-12-20T12:22:21;15.00;12.40;6.80
44933;PMS3003;30667;43.614;1.442;2022-12-20T12:24:55;13.80;13.60;7.20
44933;PMS3003;30667;43.614;1.442;2022-12-20T12:27:24;12.00;10.00;5.00
44933;PMS3003;30667;43.614;1.442;2022-12-20T12:29:52;13.00;11.00;5.40
44933;PMS3003;30667;43.614;1.442;2022-12-20T12:46:20;8.00;7.20;3.00
44933;PMS3003;30667;43.614;1.442;2022-12-20T12:49:03;8.60;8.00;3.80
44933;PMS3003;30667;43.614;1.442;2022-12-20T12:51:34;13.00;11.80;6.20
44933;PMS3003;30667;43.614;1.442;2022-12-20T12:56:39;10.40;8.00;3.80
44933;PMS3003;30667;43.614;1.442;2022-12-20T12:59:18;10.00;8.80;3.60
44933;PMS3003;30667;43.614;1.442;2022-12-20T13:11:46;10.80;10.20;4.40
44933;PMS3003;30667;43.614;1.442;2022-12-20T13:19:37;9.00;8.00;3.00
44933;PMS3003;30667;43.614;1.442;2022-12-20T13:24:57;8.00;6.80;3.00
44933;PMS3003;30667;43.614;1.442;2022-12-20T13:38:02;8.60;8.60;3.00
44933;PMS3003;30667;43.614;1.442;2022-12-20T13:40:49;8.00;8.00;3.00
44933;PMS3003;30667;43.614;1.442;2022-12-20T13:45:47;8.25;7.00;3.00
44933;PMS3003;30667;43.614;1.442;2022-12-20T13:48:16;8.00;7.00;2.00
44933;PMS3003;30667;43.614;1.442;2022-12-20T13:50:48;10.00;5.00;2.60
44933;PMS3003;30667;43.614;1.442;2022-12-20T13:53:17;9.00;7.20;2.20
44933;PMS3003;30667;43.614;1.442;2022-12-20T13:55:46;6.80;5.80;2.60
44933;PMS3003;30667;43.614;1.442;2022-12-20T13:58:19;6.20;6.00;2.20
44933;PMS3003;30667;43.614;1.442;2022-12-20T14:00:49;7.80;5.80;2.20
44933;PMS3003;30667;43.614;1.442;2022-12-20T14:03:33;8.00;6.00;2.20
44933;PMS3003;30667;43.614;1.442;2022-12-20T14:06:10;8.60;8.00;3.00
44933;PMS3003;30667;43.614;1.442;2022-12-20T14:08:38;8.40;8.00;3.00
44933;PMS3003;30667;43.614;1.442;2022-12-20T14:13:39;8.80;6.80;3.00
44933;PMS3003;30667;43.614;1.442;2022-12-20T14:16:10;7.80;5.00;3.00
44933;PMS3003;30667;43.614;1.442;2022-12-20T14:18:40;9.00;6.40;2.00
44933;PMS3003;30667;43.614;1.442;2022-12-20T14:21:06;6.50;5.75;2.00
44933;PMS3003;30667;43.614;1.442;2022-12-20T14:23:38;6.00;5.00;2.20
44933;PMS3003;30667;43.614;1.442;2022-12-20T14:26:17;7.00;7.00;3.00
44933;PMS3003;30667;43.614;1.442;2022-12-20T14:28:49;7.60;7.60;3.00
44933;PMS3003;30667;43.614;1.442;2022-12-20T14:33:47;11.40;8.00;3.00
44933;PMS3003;30667;43.614;1.442;2022-12-20T14:38:39;6.75;6.25;3.00
44933;PMS3003;30667;43.614;1.442;2022-12-20T14:41:30;6.00;5.00;3.00
44933;PMS3003;30667;43.614;1.442;2022-12-20T14:44:20;7.40;6.20;2.00
44933;PMS3003;30667;43.614;1.442;2022-12-20T14:46:57;4.80;4.80;2.00
44933;PMS3003;30667;43.614;1.442;2022-12-20T14:49:33;6.60;5.40;2.00
44933;PMS3003;30667;43.614;1.442;2022-12-20T14:52:12;7.80;7.20;3.40
44933;PMS3003;30667;43.614;1.442;2022-12-20T14:57:24;7.20;6.20;2.40
44933;PMS3003;30667;43.614;1.442;2022-12-20T15:10:39;9.80;9.00;4.00
44933;PMS3003;30667;43.614;1.442;2022-12-20T15:13:10;7.60;6.40;3.00
44933;PMS3003;30667;43.614;1.442;2022-12-20T15:15:37;8.00;6.40;2.00
44933;PMS3003;30667;43.614;1.442;2022-12-20T15:18:07;8.75;6.75;2.75
44933;PMS3003;30667;43.614;1.442;2022-12-20T15:20:37;8.80;7.60;3.00
44933;PMS3003;30667;43.614;1.442;2022-12-20T15:23:04;5.00;4.60;2.40
44933;PMS3003;30667;43.614;1.442;2022-12-20T15:25:30;5.00;4.00;3.00
44933;PMS3003;30667;43.614;1.442;2022-12-20T15:28:00;5.00;5.00;3.00
44933;PMS3003;30667;43.614;1.442;2022-12-20T15:30:26;7.00;5.00;2.00
44933;PMS3003;30667;43.614;1.442;2022-12-20T15:32:51;6.00;6.00;2.00
44933;PMS3003;30667;43.614;1.442;2022-12-20T15:35:16;4.75;4.75;2.25
44933;PMS3003;30667;43.614;1.442;2022-12-20T15:37:42;8.00;8.00;3.00
44933;PMS3003;30667;43.614;1.442;2022-12-20T15:40:09;7.75;5.25;2.75
44933;PMS3003;30667;43.614;1.442;2022-12-20T15:42:38;9.00;8.00;4.00
44933;PMS3003;30667;43.614;1.442;2022-12-20T15:45:10;8.00;8.00;3.00
44933;PMS3003;30667;43.614;1.442;2022-12-20T15:47:37;8.20;8.00;4.00
44933;PMS3003;30667;43.614;1.442;2022-12-20T15:50:03;8.50;8.00;3.00
44933;PMS3003;30667;43.614;1.442;2022-12-20T15:52:28;7.20;5.60;2.80
44933;PMS3003;30667;43.614;1.442;2022-12-20T15:54:54;7.25;6.50;2.75
44933;PMS3003;30667;43.614;1.442;2022-12-20T15:57:19;7.50;7.00;3.00
44933;PMS3003;30667;43.614;1.442;2022-12-20T15:59:45;8.00;8.00;4.00
44933;PMS3003;30667;43.614;1.442;2022-12-20T16:04:50;8.20;8.00;3.60
44933;PMS3003;30667;43.614;1.442;2022-12-20T16:07:15;7.20;7.20;3.00
44933;PMS3003;30667;43.614;1.442;2022-12-20T16:09:41;9.75;8.00;3.25
44933;PMS3003;30667;43.614;1.442;2022-12-20T16:12:25;7.75;7.75;3.00
44933;PMS3003;30667;43.614;1.442;2022-12-20T16:14:54;9.60;7.60;3.00
44933;PMS3003;30667;43.614;1.442;2022-12-20T16:17:19;8.00;8.00;4.00
44933;PMS3003;30667;43.614;1.442;2022-12-20T16:19:46;9.40;8.40;3.40
44933;PMS3003;30667;43.614;1.442;2022-12-20T16:22:15;9.50;9.00;5.00
44933;PMS3003;30667;43.614;1.442;2022-12-20T16:24:42;10.60;10.20;4.00
44933;PMS3003;30667;43.614;1.442;2022-12-20T16:27:08;10.40;9.60;4.60
44933;PMS3003;30667;43.614;1.442;2022-12-20T16:29:33;10.25;9.25;4.00
44933;PMS3003;30667;43.614;1.442;2022-12-20T16:31:59;14.25;12.00;8.00
44933;PMS3003;30667;43.614;1.442;2022-12-20T16:34:24;10.00;9.00;5.00
44933;PMS3003;30667;43.614;1.442;2022-12-20T16:36:50;9.25;8.75;4.50
44933;PMS3003;30667;43.614;1.442;2022-12-20T16:39:16;10.80;9.00;5.00
44933;PMS3003;30667;43.614;1.442;2022-12-20T16:41:41;11.00;9.50;6.75